Quiring, Minnesota
Current Conditions -  °F | °C
As of 3:34 AM on Sunday 26 Oct 2014 (Local Time) from KVWU Reporting Station
Clear Clear  
Wind Chill: 27°   Ceiling: Unl
Heat Index: 27°   Visibility: 10mi
Dew Point: 27°   Wind: 0mph
Humidity: 100%   Direction: NA
Pressure: 29.97"   Gusts: NA
Location:  47.7306°N, 94.3762°W
Report Text: KVWU 260834Z AUTO 00000KT 10SM CLR M03/M03 A2997 RMK AO2
Loading
Personal Weather Stations






























Interactive Weather Map
Tropical Storm Tracking
New forecast layout! Learn more

10-Day Weather Forecast

Advertisements
Track Severe Weather on mobile